createdAt,value
2019-01-05T00:00:35.651Z,61.65
2019-01-05T00:01:44.477Z,61.46
2019-01-05T00:02:53.819Z,61.36
2019-01-05T00:04:02.913Z,61.36
2019-01-05T00:05:11.741Z,61.36
2019-01-05T00:06:20.832Z,61.46
2019-01-05T00:07:29.933Z,61.46
2019-01-05T00:08:38.759Z,61.65
2019-01-05T00:09:47.938Z,61.65
2019-01-05T00:10:57.299Z,61.65
2019-01-05T00:12:06.635Z,61.65
2019-01-05T00:13:15.712Z,61.55
2019-01-05T00:14:25.063Z,61.46
2019-01-05T00:15:34.391Z,61.36
2019-01-05T00:16:43.263Z,61.36
2019-01-05T00:17:52.350Z,61.27
2019-01-05T00:19:01.411Z,61.36
2019-01-05T00:20:10.245Z,61.17
2019-01-05T00:21:21.951Z,61.36
2019-01-05T00:22:31.052Z,61.36
2019-01-05T00:23:40.433Z,61.46
2019-01-05T00:24:49.270Z,61.17
2019-01-05T00:25:58.087Z,61.36
2019-01-05T00:27:07.185Z,61.55
2019-01-05T00:28:16.018Z,61.17
2019-01-05T00:29:25.096Z,61.46
2019-01-05T00:30:33.936Z,61.36
2019-01-05T00:31:43.014Z,61.36
2019-01-05T00:32:52.340Z,61.08
2019-01-05T00:34:01.152Z,61.17
2019-01-05T00:35:09.993Z,61.46
2019-01-05T00:36:19.332Z,60.78
2019-01-05T00:37:28.156Z,61.08
2019-01-05T00:38:37.255Z,61.36
2019-01-05T00:39:46.586Z,60.88
2019-01-05T00:40:55.420Z,61.36
2019-01-05T00:42:04.245Z,61.27
2019-01-05T00:43:13.603Z,60.88
2019-01-05T00:44:22.425Z,61.08
2019-01-05T00:45:31.253Z,61.08
2019-01-05T00:46:40.059Z,60.69
2019-01-05T00:47:49.134Z,61.46
2019-01-05T00:48:57.948Z,60.78
2019-01-05T00:50:07.133Z,61.27
2019-01-05T00:51:16.225Z,60.78
2019-01-05T00:52:25.336Z,60.78
2019-01-05T00:53:34.692Z,60.6
2019-01-05T00:54:43.549Z,60.78
2019-01-05T00:55:52.712Z,60.6
2019-01-05T00:57:01.802Z,60.88
2019-01-05T00:58:10.643Z,60.88
2019-01-05T00:59:19.719Z,60.6
2019-01-05T01:00:29.350Z,60.88
2019-01-05T01:01:38.444Z,60.88
2019-01-05T01:02:47.248Z,60.69
2019-01-05T01:03:56.314Z,60.78
2019-01-05T01:05:05.134Z,61.08
2019-01-05T01:06:14.485Z,61.36
2019-01-05T01:07:23.306Z,60.88
2019-01-05T01:08:32.661Z,61.27
2019-01-05T01:09:41.498Z,61.08
2019-01-05T01:10:50.338Z,61.08
2019-01-05T01:11:59.462Z,60.98
2019-01-05T01:13:08.292Z,61.46
2019-01-05T01:14:17.395Z,61.36
2019-01-05T01:15:26.998Z,61.27
2019-01-05T01:16:35.831Z,61.36
2019-01-05T01:17:44.637Z,61.36
2019-01-05T01:18:54.098Z,61.65
2019-01-05T01:20:03.293Z,60.98
2019-01-05T01:21:12.402Z,60.78
2019-01-05T01:22:21.469Z,60.95
2019-01-05T01:23:30.288Z,60.98
2019-01-05T01:24:39.200Z,60.88
2019-01-05T01:25:48.032Z,61.08
2019-01-05T01:26:57.366Z,60.98
2019-01-05T01:28:06.716Z,60.98
2019-01-05T01:29:15.831Z,60.98
2019-01-05T01:30:24.652Z,60.98
2019-01-05T01:31:33.494Z,61.17
2019-01-05T01:32:42.379Z,61.08
2019-01-05T01:33:51.484Z,61.17
2019-01-05T01:35:00.812Z,61.17
2019-01-05T01:36:10.252Z,61.46
2019-01-05T01:37:19.086Z,61.36
2019-01-05T01:38:27.926Z,61.36
2019-01-05T01:39:36.744Z,61.27
2019-01-05T01:40:45.565Z,61.46
2019-01-05T01:41:54.755Z,61.36
2019-01-05T01:43:03.579Z,61.08
2019-01-05T01:44:12.401Z,61.17
2019-01-05T01:45:21.217Z,61.36
2019-01-05T01:46:30.043Z,61.36
2019-01-05T01:47:39.247Z,61.17
2019-01-05T01:48:48.600Z,61.27
2019-01-05T01:49:57.709Z,61.27
2019-01-05T01:51:06.537Z,61.17
2019-01-05T01:52:16.156Z,61.27
2019-01-05T01:53:25.368Z,61.17
2019-01-05T01:54:34.175Z,60.78
2019-01-05T01:55:42.987Z,60.98
2019-01-05T01:56:51.803Z,61.08
2019-01-05T01:58:01.164Z,60.78
2019-01-05T01:59:10.285Z,60.98
2019-01-05T02:00:19.095Z,60.78
2019-01-05T02:01:27.923Z,61.17
2019-01-05T02:02:37.056Z,61.08
2019-01-05T02:03:46.135Z,61.17
2019-01-05T02:04:55.267Z,60.88
2019-01-05T02:06:04.739Z,60.78
2019-01-05T02:07:13.577Z,60.69
2019-01-05T02:08:22.658Z,60.31
2019-01-05T02:09:31.996Z,60.4
2019-01-05T02:10:40.817Z,60.38
2019-01-05T02:11:49.626Z,60.31
2019-01-05T02:12:58.712Z,60.4
2019-01-05T02:14:08.073Z,60.69
2019-01-05T02:15:17.156Z,60.69
2019-01-05T02:16:26.494Z,60.69
2019-01-05T02:17:35.863Z,60.6
2019-01-05T02:18:58.419Z,60.38
2019-01-05T02:20:07.776Z,60.69
2019-01-05T02:21:16.614Z,60.69
2019-01-05T02:22:25.435Z,60.6
2019-01-05T02:23:34.268Z,60.4
2019-01-05T02:24:43.346Z,60.4
2019-01-05T02:25:52.695Z,60.6
2019-01-05T02:27:01.496Z,60.88
2019-01-05T02:28:10.300Z,60.4
2019-01-05T02:29:19.411Z,60.69
2019-01-05T02:30:28.494Z,60.38
2019-01-05T02:31:37.313Z,60.5
2019-01-05T02:32:46.447Z,60.38
2019-01-05T02:33:55.327Z,60.38
2019-01-05T02:35:04.168Z,60.57
2019-01-05T02:36:13.291Z,60.38
2019-01-05T02:37:22.119Z,60.75
2019-01-05T02:38:31.463Z,60.47
2019-01-05T02:39:40.392Z,60.5
2019-01-05T02:40:49.776Z,60.66
2019-01-05T02:41:58.627Z,60.88
2019-01-05T02:43:07.727Z,60.75
2019-01-05T02:44:16.828Z,60.95
2019-01-05T02:45:25.762Z,60.78
2019-01-05T02:46:35.136Z,60.69
2019-01-05T02:47:44.462Z,60.66
2019-01-05T02:48:53.581Z,60.98
2019-01-05T02:50:02.954Z,60.85
2019-01-05T02:51:11.827Z,60.85
2019-01-05T02:52:20.942Z,60.95
2019-01-05T02:53:30.290Z,60.88
2019-01-05T02:54:39.104Z,60.69
2019-01-05T02:55:48.192Z,60.6
2019-01-05T02:56:57.643Z,60.88
2019-01-05T02:58:06.509Z,60.88
2019-01-05T02:59:15.318Z,60.47
2019-01-05T03:00:24.405Z,60.95
2019-01-05T03:01:33.241Z,60.75
2019-01-05T03:02:42.357Z,60.75
2019-01-05T03:03:51.461Z,60.75
2019-01-05T03:05:00.798Z,60.75
2019-01-05T03:06:09.954Z,60.95
2019-01-05T03:07:19.073Z,61.05
2019-01-05T03:08:27.945Z,60.85
2019-01-05T03:09:36.772Z,60.47
2019-01-05T03:10:46.133Z,60.47
2019-01-05T03:11:54.969Z,61.24
2019-01-05T03:13:03.797Z,60.38
2019-01-05T03:14:12.980Z,60.95
2019-01-05T03:15:22.070Z,60.85
2019-01-05T03:16:30.944Z,60.85
2019-01-05T03:17:40.048Z,60.47
2019-01-05T03:18:48.854Z,60.28
2019-01-05T03:19:57.991Z,60.38
2019-01-05T03:21:07.384Z,60.85
2019-01-05T03:22:16.518Z,60.38
2019-01-05T03:23:25.371Z,60.66
2019-01-05T03:24:35.287Z,60.75
2019-01-05T03:25:44.418Z,60.38
2019-01-05T03:26:53.517Z,60.38
2019-01-05T03:28:02.858Z,61.05
2019-01-05T03:29:11.942Z,60.38
2019-01-05T03:30:20.789Z,60.38
2019-01-05T03:31:30.011Z,60.66
2019-01-05T03:32:38.855Z,60.75
2019-01-05T03:33:47.709Z,60.66
2019-01-05T03:34:57.060Z,60.66
2019-01-05T03:36:06.182Z,60.75
2019-01-05T03:37:15.333Z,60.75
2019-01-05T03:38:24.165Z,60.57
2019-01-05T03:39:32.985Z,60.6
2019-01-05T03:40:42.092Z,60.18
2019-01-05T03:41:50.927Z,60.38
2019-01-05T03:43:00.091Z,60.18
2019-01-05T03:44:09.206Z,60.28
2019-01-05T03:45:18.312Z,60.18
2019-01-05T03:46:27.397Z,60.28
2019-01-05T03:47:36.227Z,60.28
2019-01-05T03:48:45.670Z,60.38
2019-01-05T03:49:55.067Z,60.28
2019-01-05T03:51:03.891Z,60.28
2019-01-05T03:52:12.733Z,60.28
2019-01-05T03:53:21.570Z,60.08
2019-01-05T03:54:30.651Z,60.38
2019-01-05T03:55:39.462Z,60.18
2019-01-05T03:56:48.553Z,60.38
2019-01-05T03:57:57.640Z,60.18
2019-01-05T03:59:06.736Z,60.38
2019-01-05T04:00:15.667Z,60.38
2019-01-05T04:01:24.756Z,60.18
2019-01-05T04:02:33.573Z,60.28
2019-01-05T04:03:42.675Z,60.18
2019-01-05T04:04:51.747Z,60.18
2019-01-05T04:06:00.662Z,60.18
2019-01-05T04:07:09.475Z,60.28
2019-01-05T04:08:19.108Z,60.28
2019-01-05T04:09:27.936Z,60.47
2019-01-05T04:10:36.748Z,60.28
2019-01-05T04:11:45.878Z,60.38
2019-01-05T04:12:54.971Z,60.08
2019-01-05T04:14:03.804Z,60.66
2019-01-05T04:15:12.628Z,60.28
2019-01-05T04:16:21.465Z,60.38
2019-01-05T04:17:30.408Z,60.08
2019-01-05T04:18:39.762Z,60.28
2019-01-05T04:19:48.589Z,60.28
2019-01-05T04:20:57.422Z,60.47
2019-01-05T04:22:06.508Z,60.47
2019-01-05T04:23:16.115Z,60.57
2019-01-05T04:24:25.223Z,60.08
2019-01-05T04:25:34.308Z,60.28
2019-01-05T04:26:43.145Z,60.57
2019-01-05T04:27:52.554Z,60.38
2019-01-05T04:29:01.918Z,60.38
2019-01-05T04:30:11.032Z,60.08
2019-01-05T04:31:19.832Z,60.38
2019-01-05T04:32:29.181Z,60.57
2019-01-05T04:33:38.539Z,60.08
2019-01-05T04:34:47.860Z,60.47
2019-01-05T04:35:56.981Z,60.08
2019-01-05T04:37:05.803Z,60.08
2019-01-05T04:38:14.868Z,60.08
2019-01-05T04:39:23.977Z,60.38
2019-01-05T04:40:32.927Z,60.38
2019-01-05T04:41:41.753Z,60.08
2019-01-05T04:42:50.874Z,60.38
2019-01-05T04:44:00.257Z,60.38
2019-01-05T04:45:09.629Z,60.38
2019-01-05T04:46:18.560Z,60.18
2019-01-05T04:47:27.904Z,60.28
2019-01-05T04:48:36.713Z,60.08
2019-01-05T04:49:46.073Z,60.28
2019-01-05T04:50:55.445Z,60.08
2019-01-05T04:52:04.817Z,60.28
2019-01-05T04:53:13.644Z,60.08
2019-01-05T04:54:22.729Z,60.18
2019-01-05T04:55:31.553Z,60.38
2019-01-05T04:56:40.647Z,60.28
2019-01-05T04:57:49.734Z,60.18
2019-01-05T04:58:58.896Z,59.99
2019-01-05T05:00:07.729Z,60.28
2019-01-05T05:01:16.824Z,60.18
2019-01-05T05:02:25.911Z,60.28
2019-01-05T05:03:35.129Z,60.08
2019-01-05T05:04:43.973Z,60.28
2019-01-05T05:05:52.787Z,60.18
2019-01-05T05:07:01.919Z,60.08
2019-01-05T05:08:11.290Z,60.28
2019-01-05T05:09:20.412Z,60.28
2019-01-05T05:10:29.522Z,60.28
2019-01-05T05:11:38.366Z,60.18
2019-01-05T05:12:47.181Z,60.28
2019-01-05T05:13:56.271Z,60.28
2019-01-05T05:15:05.687Z,60.38
2019-01-05T05:16:14.762Z,60.08
2019-01-05T05:17:23.854Z,60.38
2019-01-05T05:18:32.951Z,59.89
2019-01-05T05:19:42.048Z,59.89
2019-01-05T05:20:50.953Z,60.66
2019-01-05T05:22:00.305Z,60.38
2019-01-05T05:23:09.140Z,60.38
2019-01-05T05:24:18.498Z,60.66
2019-01-05T05:25:27.593Z,59.99
2019-01-05T05:26:36.457Z,59.7
2019-01-05T05:27:45.303Z,59.99
2019-01-05T05:28:54.400Z,60.28
2019-01-05T05:30:03.242Z,60.08
2019-01-05T05:31:12.582Z,59.99
2019-01-05T05:32:21.486Z,60.38
2019-01-05T05:33:30.547Z,60.28
2019-01-05T05:34:39.646Z,60.28
2019-01-05T05:35:48.725Z,60.28
2019-01-05T05:36:57.897Z,60.28
2019-01-05T05:38:06.726Z,60.38
2019-01-05T05:39:15.552Z,59.89
2019-01-05T05:40:24.628Z,60.08
2019-01-05T05:41:33.978Z,60.38
2019-01-05T05:42:43.069Z,59.99
2019-01-05T05:43:52.216Z,60.08
2019-01-05T05:45:01.580Z,59.99
2019-01-05T05:46:10.705Z,59.89
2019-01-05T05:47:20.042Z,59.8
2019-01-05T05:48:28.885Z,59.8
2019-01-05T05:49:38.081Z,59.7
2019-01-05T05:50:47.186Z,59.99
2019-01-05T05:51:56.266Z,59.8
2019-01-05T05:53:05.634Z,59.89
2019-01-05T05:54:14.723Z,59.89
2019-01-05T05:55:24.160Z,59.8
2019-01-05T05:56:33.516Z,59.8
2019-01-05T05:57:42.848Z,59.89
2019-01-05T05:58:51.941Z,59.8
2019-01-05T06:00:01.021Z,59.8
2019-01-05T06:01:10.213Z,59.89
2019-01-05T06:02:19.032Z,59.89
2019-01-05T06:03:28.135Z,59.8
2019-01-05T06:04:36.934Z,59.7
2019-01-05T06:05:46.021Z,59.7
2019-01-05T06:06:54.910Z,59.89
2019-01-05T06:08:04.519Z,59.89
2019-01-05T06:09:13.638Z,59.89
2019-01-05T06:10:22.987Z,59.7
2019-01-05T06:11:31.791Z,59.8
2019-01-05T06:12:41.199Z,59.8
2019-01-05T06:13:50.544Z,59.7
2019-01-05T06:14:59.378Z,59.99
2019-01-05T06:16:08.189Z,59.99
2019-01-05T06:17:17.273Z,59.89
2019-01-05T06:18:26.350Z,59.89
2019-01-05T06:19:35.214Z,59.61
2019-01-05T06:20:44.290Z,59.99
2019-01-05T06:21:53.106Z,59.99
2019-01-05T06:23:02.181Z,59.99
2019-01-05T06:24:11.014Z,59.89
2019-01-05T06:25:20.096Z,59.99
2019-01-05T06:26:28.948Z,59.8
2019-01-05T06:27:37.775Z,59.89
2019-01-05T06:28:46.859Z,59.99
2019-01-05T06:29:56.188Z,59.8
2019-01-05T06:31:05.011Z,59.99
2019-01-05T06:32:13.831Z,59.99
2019-01-05T06:33:22.926Z,59.8
2019-01-05T06:34:31.990Z,59.8
2019-01-05T06:35:40.919Z,60.38
2019-01-05T06:36:49.727Z,59.8
2019-01-05T06:37:58.806Z,59.8
2019-01-05T06:39:07.686Z,59.61
2019-01-05T06:40:16.532Z,59.7
2019-01-05T06:41:25.978Z,60.08
2019-01-05T06:42:35.055Z,59.89
2019-01-05T06:43:44.127Z,59.89
2019-01-05T06:44:52.935Z,59.7
2019-01-05T06:46:02.294Z,59.8
2019-01-05T06:47:11.472Z,59.7
2019-01-05T06:48:20.794Z,59.61
2019-01-05T06:49:29.610Z,59.61
2019-01-05T06:50:38.690Z,59.8
2019-01-05T06:51:47.509Z,59.8
2019-01-05T06:52:56.588Z,59.7
2019-01-05T06:54:05.397Z,59.8
2019-01-05T06:55:14.721Z,59.8
2019-01-05T06:56:23.808Z,59.8
2019-01-05T06:57:33.162Z,59.89
2019-01-05T06:58:42.349Z,59.7
2019-01-05T06:59:51.175Z,59.8
2019-01-05T07:01:00.280Z,60.08
2019-01-05T07:02:09.106Z,59.89
2019-01-05T07:03:17.929Z,59.8
2019-01-05T07:04:26.818Z,59.8
2019-01-05T07:05:35.887Z,59.7
2019-01-05T07:06:45.253Z,59.7
2019-01-05T07:07:54.086Z,59.7
2019-01-05T07:09:02.904Z,59.7
2019-01-05T07:10:11.981Z,59.89
2019-01-05T07:11:21.088Z,59.7
2019-01-05T07:12:30.188Z,59.61
2019-01-05T07:13:39.320Z,59.89
2019-01-05T07:14:48.154Z,59.89
2019-01-05T07:15:56.974Z,59.89
2019-01-05T07:17:06.075Z,59.32
2019-01-05T07:18:14.891Z,59.22
2019-01-05T07:19:23.979Z,59.12
2019-01-05T07:20:32.784Z,59.32
2019-01-05T07:21:41.904Z,59.41
2019-01-05T07:22:50.964Z,59.32
2019-01-05T07:23:59.777Z,59.12
2019-01-05T07:25:09.391Z,59.99
2019-01-05T07:26:18.211Z,59.41
2019-01-05T07:27:27.081Z,59.41
2019-01-05T07:28:36.180Z,59.32
2019-01-05T07:29:45.273Z,59.32
2019-01-05T07:30:54.354Z,59.61
2019-01-05T07:32:03.158Z,59.41
2019-01-05T07:33:12.031Z,59.32
2019-01-05T07:34:20.860Z,59.41
2019-01-05T07:35:30.763Z,59.22
2019-01-05T07:36:39.605Z,59.22
2019-01-05T07:37:48.417Z,59.32
2019-01-05T07:38:57.520Z,59.32
2019-01-05T07:40:06.353Z,59.32
2019-01-05T07:41:15.445Z,59.41
2019-01-05T07:42:24.793Z,59.41
2019-01-05T07:43:34.260Z,59.41
2019-01-05T07:44:43.368Z,59.7
2019-01-05T07:45:52.211Z,59.61
2019-01-05T07:47:01.337Z,59.32
2019-01-05T07:48:10.462Z,59.51
2019-01-05T07:49:19.528Z,59.51
2019-01-05T07:50:28.642Z,59.51
2019-01-05T07:51:37.988Z,59.61
2019-01-05T07:52:47.111Z,59.61
2019-01-05T07:53:56.175Z,59.61
2019-01-05T07:55:04.997Z,59.41
2019-01-05T07:56:13.870Z,59.7
2019-01-05T07:57:23.196Z,59.51
2019-01-05T07:58:32.298Z,59.32
2019-01-05T07:59:41.123Z,59.61
2019-01-05T08:00:49.932Z,59.61
2019-01-05T08:01:59.151Z,59.7
2019-01-05T08:03:07.997Z,59.61
2019-01-05T08:04:17.103Z,59.51
2019-01-05T08:05:26.177Z,59.51
2019-01-05T08:06:35.270Z,59.51
2019-01-05T08:07:44.234Z,59.32
2019-01-05T08:08:53.038Z,59.61
2019-01-05T08:10:01.862Z,59.51
2019-01-05T08:11:10.667Z,59.51
2019-01-05T08:12:19.818Z,59.41
2019-01-05T08:13:29.141Z,59.61
2019-01-05T08:14:38.231Z,59.51
2019-01-05T08:15:47.369Z,59.61
2019-01-05T08:16:56.726Z,59.7
2019-01-05T08:18:05.827Z,59.51
2019-01-05T08:19:15.243Z,59.51
2019-01-05T08:20:24.338Z,59.12
2019-01-05T08:21:34.365Z,59.12
2019-01-05T08:22:43.440Z,58.64
2019-01-05T08:23:53.045Z,59.12
2019-01-05T08:25:02.120Z,59.12
2019-01-05T08:26:11.204Z,59.12
2019-01-05T08:27:20.582Z,59.12
2019-01-05T08:28:29.398Z,59.12
2019-01-05T08:29:38.737Z,59.32
2019-01-05T08:30:48.144Z,59.12
2019-01-05T08:31:57.514Z,59.32
2019-01-05T08:33:06.603Z,59.12
2019-01-05T08:34:15.967Z,59.32
2019-01-05T08:35:25.066Z,59.12
2019-01-05T08:36:34.536Z,59.32
2019-01-05T08:37:43.362Z,59.03
2019-01-05T08:38:52.687Z,59.32
2019-01-05T08:40:01.779Z,59.12
2019-01-05T08:41:10.603Z,59.12
2019-01-05T08:42:20.056Z,59.12
2019-01-05T08:43:29.219Z,59.22
2019-01-05T08:44:38.041Z,59.12
2019-01-05T08:45:47.123Z,59.12
2019-01-05T08:46:56.199Z,59.32
2019-01-05T08:48:05.383Z,59.03
2019-01-05T08:49:14.472Z,59.12
2019-01-05T08:50:23.301Z,59.32
2019-01-05T08:51:32.397Z,59.12
2019-01-05T08:52:41.761Z,59.12
2019-01-05T08:53:51.475Z,59.12
2019-01-05T08:55:00.831Z,59.12
2019-01-05T08:56:09.632Z,59.12
2019-01-05T08:57:18.716Z,59.22
2019-01-05T08:58:27.799Z,59.32
2019-01-05T08:59:36.912Z,59.12
2019-01-05T09:00:45.724Z,59.22
2019-01-05T09:01:54.560Z,59.12
2019-01-05T09:03:03.385Z,59.22
2019-01-05T09:04:12.742Z,59.32
2019-01-05T09:05:21.613Z,59.03
2019-01-05T09:06:30.694Z,59.12
2019-01-05T09:07:39.507Z,59.51
2019-01-05T09:08:48.322Z,59.51
2019-01-05T09:09:57.946Z,59.12
2019-01-05T09:11:06.920Z,59.12
2019-01-05T09:12:15.746Z,59.32
2019-01-05T09:13:25.084Z,59.51
2019-01-05T09:14:34.681Z,59.32
2019-01-05T09:15:44.020Z,59.51
2019-01-05T09:16:53.417Z,59.61
2019-01-05T09:18:02.257Z,59.7
2019-01-05T09:19:11.084Z,59.12
2019-01-05T09:20:19.895Z,59.7
2019-01-05T09:21:28.711Z,59.61
2019-01-05T09:22:38.119Z,59.61
2019-01-05T09:23:47.208Z,59.51
2019-01-05T09:24:56.297Z,59.7
2019-01-05T09:26:05.380Z,59.51
2019-01-05T09:27:20.473Z,59.61
2019-01-05T09:28:30.210Z,59.32
2019-01-05T09:29:39.313Z,59.51
2019-01-05T09:30:48.171Z,59.12
2019-01-05T09:31:57.529Z,59.41
2019-01-05T09:33:06.616Z,59.32
2019-01-05T09:34:15.548Z,59.12
2019-01-05T09:35:24.368Z,59.12
2019-01-05T09:36:33.471Z,59.51
2019-01-05T09:37:42.561Z,59.51
2019-01-05T09:38:51.639Z,59.12
2019-01-05T09:40:00.823Z,59.12
2019-01-05T09:41:10.240Z,59.32
2019-01-05T09:42:19.072Z,59.12
2019-01-05T09:43:27.908Z,59.51
2019-01-05T09:44:37.012Z,59.12
2019-01-05T09:45:46.133Z,59.32
2019-01-05T09:46:55.222Z,59.51
2019-01-05T09:48:04.332Z,59.51
2019-01-05T09:49:13.159Z,59.51
2019-01-05T09:50:21.980Z,59.12
2019-01-05T09:51:30.864Z,59.32
2019-01-05T09:52:39.660Z,59.32
2019-01-05T09:53:48.475Z,59.32
2019-01-05T09:54:57.568Z,59.51
2019-01-05T09:56:06.386Z,59.7
2019-01-05T09:57:15.574Z,59.51
2019-01-05T09:58:24.392Z,59.61
2019-01-05T09:59:33.475Z,59.51
2019-01-05T10:00:42.305Z,59.41
2019-01-05T10:01:51.419Z,59.41
2019-01-05T10:03:00.536Z,59.32
2019-01-05T10:04:09.381Z,59.61
2019-01-05T10:05:18.736Z,59.61
2019-01-05T10:06:27.565Z,59.32
2019-01-05T10:07:37.163Z,59.51
2019-01-05T10:08:46.776Z,59.22
2019-01-05T10:09:55.615Z,59.32
2019-01-05T10:11:04.491Z,59.41
2019-01-05T10:12:13.323Z,59.41
2019-01-05T10:13:22.151Z,59.32
2019-01-05T10:14:31.614Z,59.03
2019-01-05T10:15:40.457Z,59.22
2019-01-05T10:16:49.530Z,59.89
2019-01-05T10:17:58.619Z,60.18
2019-01-05T10:19:08.873Z,60.08
2019-01-05T10:20:17.686Z,59.12
2019-01-05T10:21:26.790Z,59.8
2019-01-05T10:22:35.895Z,60.18
2019-01-05T10:23:44.715Z,59.32
2019-01-05T10:24:53.537Z,59.41
2019-01-05T10:26:02.740Z,59.51
2019-01-05T10:27:11.803Z,60.18
2019-01-05T10:28:20.884Z,59.99
2019-01-05T10:29:29.715Z,59.7
2019-01-05T10:30:38.557Z,60.28
2019-01-05T10:31:47.388Z,59.99
2019-01-05T10:32:56.217Z,59.8
2019-01-05T10:34:05.038Z,59.89
2019-01-05T10:35:14.135Z,60.08
2019-01-05T10:36:23.218Z,60.08
2019-01-05T10:37:32.657Z,59.32
2019-01-05T10:38:41.747Z,59.61
2019-01-05T10:39:51.130Z,58.94
2019-01-05T10:41:00.222Z,59.12
2019-01-05T10:42:09.516Z,59.61
2019-01-05T10:43:18.636Z,59.32
2019-01-05T10:44:27.724Z,59.32
2019-01-05T10:45:37.357Z,60.18
2019-01-05T10:46:46.437Z,59.89
2019-01-05T10:47:55.708Z,59.8
2019-01-05T10:49:04.564Z,60.28
2019-01-05T10:50:13.651Z,60.08
2019-01-05T10:51:23.254Z,60.18
2019-01-05T10:52:32.320Z,60.18
2019-01-05T10:53:42.342Z,60.38
2019-01-05T10:54:51.533Z,60.38
2019-01-05T10:56:00.629Z,60.95
2019-01-05T10:57:09.458Z,61.05
2019-01-05T10:58:18.536Z,61.14
2019-01-05T10:59:27.619Z,61.05
2019-01-05T11:00:36.501Z,60.75
2019-01-05T11:01:45.323Z,60.95
2019-01-05T11:02:54.423Z,60.75
2019-01-05T11:04:03.784Z,60.57
2019-01-05T11:05:13.132Z,60.66
2019-01-05T11:06:23.118Z,60.57
2019-01-05T11:07:31.941Z,60.38
2019-01-05T11:08:40.774Z,60.66
2019-01-05T11:09:49.859Z,60.66
2019-01-05T11:10:59.506Z,60.28
2019-01-05T11:12:08.371Z,60.38
2019-01-05T11:13:17.460Z,60.75
2019-01-05T11:14:26.287Z,60.38
2019-01-05T11:15:35.667Z,60.75
2019-01-05T11:16:44.755Z,60.38
2019-01-05T11:17:54.129Z,60.38
2019-01-05T11:19:02.961Z,60.75
2019-01-05T11:20:11.802Z,60.47
2019-01-05T11:21:21.267Z,60.57
2019-01-05T11:22:30.368Z,60.47
2019-01-05T11:23:39.437Z,60.47
2019-01-05T11:24:48.475Z,60.47
2019-01-05T11:25:57.604Z,59.89
2019-01-05T11:27:06.416Z,60.38
2019-01-05T11:28:15.548Z,60.28
2019-01-05T11:29:24.549Z,60.18
2019-01-05T11:30:33.642Z,60.38
2019-01-05T11:31:42.805Z,60.18
2019-01-05T11:32:51.921Z,60.18
2019-01-05T11:34:01.301Z,60.38
2019-01-05T11:35:10.798Z,60.08
2019-01-05T11:36:19.906Z,60.28
2019-01-05T11:37:29.093Z,60.38
2019-01-05T11:38:38.249Z,60.38
2019-01-05T11:39:47.085Z,60.28
2019-01-05T11:40:56.483Z,60.08
2019-01-05T11:42:05.362Z,60.18
2019-01-05T11:43:14.305Z,60.28
2019-01-05T11:44:23.417Z,60.28
2019-01-05T11:45:32.289Z,60.28
2019-01-05T11:46:41.484Z,60.18
2019-01-05T11:47:50.739Z,60.18
2019-01-05T11:48:59.857Z,60.38
2019-01-05T11:50:09.670Z,60.47
2019-01-05T11:51:19.141Z,60.47
2019-01-05T11:52:27.989Z,60.38
2019-01-05T11:53:36.844Z,60.47
2019-01-05T11:54:45.681Z,60.28
2019-01-05T11:55:54.826Z,60.38
2019-01-05T11:57:03.681Z,60.38
2019-01-05T11:58:12.649Z,60.28
2019-01-05T11:59:21.787Z,60.28
2019-01-05T12:00:30.926Z,60.47
2019-01-05T12:01:40.055Z,60.08
2019-01-05T12:02:48.933Z,60.57
2019-01-05T12:03:58.361Z,60.66
2019-01-05T12:05:07.200Z,60.08
2019-01-05T12:06:16.303Z,60.47
2019-01-05T12:07:25.199Z,60.08
2019-01-05T12:08:34.320Z,60.47
2019-01-05T12:09:43.449Z,60.47
2019-01-05T12:10:52.267Z,60.57
2019-01-05T12:12:01.111Z,60.57
2019-01-05T12:13:09.940Z,60.47
2019-01-05T12:14:18.768Z,60.57
2019-01-05T12:15:27.688Z,60.38
2019-01-05T12:16:43.315Z,60.38
2019-01-05T12:17:52.676Z,60.38
2019-01-05T12:19:01.491Z,60.47
2019-01-05T12:20:10.299Z,60.08
2019-01-05T12:21:19.501Z,60.18
2019-01-05T12:22:28.573Z,60.08
2019-01-05T12:23:38.094Z,59.99
2019-01-05T12:24:47.450Z,60.08
2019-01-05T12:25:56.569Z,60.08
2019-01-05T12:27:05.646Z,60.38
2019-01-05T12:28:15.298Z,60.08
2019-01-05T12:29:24.476Z,60.28
2019-01-05T12:30:33.878Z,60.18
2019-01-05T12:31:42.980Z,60.28
2019-01-05T12:32:52.188Z,60.08
2019-01-05T12:34:01.227Z,60.28
2019-01-05T12:35:10.050Z,60.08
2019-01-05T12:36:18.891Z,60.08
2019-01-05T12:37:28.669Z,60.28
2019-01-05T12:38:37.898Z,60.28
2019-01-05T12:39:46.747Z,60.08
2019-01-05T12:40:55.552Z,59.99
2019-01-05T12:42:04.422Z,60.08
2019-01-05T12:43:13.780Z,60.18
2019-01-05T12:44:22.648Z,60.38
2019-01-05T12:45:31.480Z,60.08
2019-01-05T12:46:40.356Z,59.8
2019-01-05T12:47:55.710Z,59.89
2019-01-05T12:49:04.832Z,59.89
2019-01-05T12:50:14.287Z,59.7
2019-01-05T12:51:23.110Z,59.89
2019-01-05T12:52:32.179Z,59.7
2019-01-05T12:53:41.164Z,59.99
2019-01-05T12:54:50.443Z,59.89
2019-01-05T12:55:59.852Z,59.89
2019-01-05T12:57:09.317Z,59.7
2019-01-05T12:58:18.349Z,59.8
2019-01-05T12:59:27.244Z,59.7
2019-01-05T13:00:36.343Z,59.89
2019-01-05T13:01:45.511Z,59.7
2019-01-05T13:02:54.682Z,59.7
2019-01-05T13:04:03.490Z,59.8
2019-01-05T13:05:12.854Z,59.99
2019-01-05T13:06:21.666Z,59.89
2019-01-05T13:07:30.849Z,59.7
2019-01-05T13:08:40.054Z,59.89
2019-01-05T13:09:49.127Z,60.47
2019-01-05T13:10:58.721Z,59.7
2019-01-05T13:12:08.013Z,59.7
2019-01-05T13:13:16.942Z,59.99
2019-01-05T13:14:25.784Z,59.89
2019-01-05T13:15:34.887Z,59.7
2019-01-05T13:16:43.741Z,60.28
2019-01-05T13:17:59.010Z,60.08
2019-01-05T13:19:07.925Z,59.89
2019-01-05T13:20:17.393Z,59.89
2019-01-05T13:21:26.692Z,59.7
2019-01-05T13:22:35.914Z,59.7
2019-01-05T13:23:45.001Z,59.8
2019-01-05T13:24:54.292Z,59.7
2019-01-05T13:26:03.420Z,59.89
2019-01-05T13:27:12.302Z,59.99
2019-01-05T13:28:21.131Z,59.99
2019-01-05T13:29:30.218Z,60.47
2019-01-05T13:30:39.160Z,59.89
2019-01-05T13:31:48.265Z,59.99
2019-01-05T13:32:57.112Z,60.28
2019-01-05T13:34:06.733Z,59.22
2019-01-05T13:35:15.551Z,58.94
2019-01-05T13:36:24.787Z,58.64
2019-01-05T13:37:34.172Z,59.09
2019-01-05T13:38:43.280Z,58.91
2019-01-05T13:39:52.671Z,59.03
2019-01-05T13:41:01.503Z,59.03
2019-01-05T13:42:10.307Z,59.12
2019-01-05T13:43:19.115Z,59.61
2019-01-05T13:44:28.188Z,59.61
2019-01-05T13:45:37.296Z,59.61
2019-01-05T13:46:46.922Z,59.51
2019-01-05T13:47:56.085Z,59.41
2019-01-05T13:49:05.442Z,59.22
2019-01-05T13:50:14.278Z,59.8
2019-01-05T13:51:23.695Z,59.8
2019-01-05T13:52:32.759Z,59.8
2019-01-05T13:53:42.026Z,60.18
2019-01-05T13:54:50.840Z,60.28
2019-01-05T13:55:59.679Z,60.28
2019-01-05T13:57:08.815Z,60.18
2019-01-05T13:58:17.970Z,59.99
2019-01-05T13:59:27.362Z,60.38
2019-01-05T14:00:36.443Z,60.57
2019-01-05T14:01:45.249Z,60.38
2019-01-05T14:02:54.389Z,60.18
2019-01-05T14:04:03.788Z,59.89
2019-01-05T14:05:12.920Z,59.99
2019-01-05T14:06:21.999Z,59.99
2019-01-05T14:07:30.899Z,59.89
2019-01-05T14:08:40.065Z,59.7
2019-01-05T14:09:49.162Z,59.89
2019-01-05T14:10:58.196Z,59.89
2019-01-05T14:12:07.265Z,59.89
2019-01-05T14:13:16.116Z,60.28
2019-01-05T14:14:24.950Z,60.47
2019-01-05T14:15:34.315Z,60.21
2019-01-05T14:16:43.765Z,60.31
2019-01-05T14:17:53.374Z,60.38
2019-01-05T14:19:02.527Z,61.05
2019-01-05T14:20:15.810Z,60.69
2019-01-05T14:21:25.594Z,60.75
2019-01-05T14:22:34.686Z,60.6
2019-01-05T14:23:44.597Z,61.46
2019-01-05T14:24:53.693Z,60.88
2019-01-05T14:26:02.521Z,60.38
2019-01-05T14:27:11.969Z,60.47
2019-01-05T14:28:21.417Z,60.28
2019-01-05T14:29:30.553Z,60.66
2019-01-05T14:30:40.009Z,61.05
2019-01-05T14:31:48.870Z,61.05
2019-01-05T14:32:57.700Z,61.33
2019-01-05T14:34:06.627Z,62.04
2019-01-05T14:35:15.721Z,62.04
2019-01-05T14:36:24.554Z,61.91
2019-01-05T14:37:33.444Z,62.04
2019-01-05T14:38:42.513Z,62.01
2019-01-05T14:39:51.716Z,61.65
2019-01-05T14:41:00.781Z,61.72
2019-01-05T14:42:09.608Z,62.04
2019-01-05T14:43:18.428Z,62.42
2019-01-05T14:44:27.512Z,62.71
2019-01-05T14:45:36.416Z,62.99
2019-01-05T14:46:45.749Z,62.71
2019-01-05T14:47:54.676Z,63.38
2019-01-05T14:49:04.017Z,63.38
2019-01-05T14:50:12.839Z,63.19
2019-01-05T14:51:21.806Z,63.76
2019-01-05T14:52:30.888Z,63.48
2019-01-05T14:53:39.690Z,63.67